Time;durP1;ratioP1;P1;durP2;ratioP2;P2;SDS_P1;SDS_P2;PMS_P1;PMS_P2;Temp;Humidity;BMP_temperature;BMP_pressure;BME280_temperature;BME280_humidity;BME280_pressure;Samples;Min_cycle;Max_cycle;Signal;HPM_P1;HPM_P2
2022/08/15 00:02:21;;;;;;;5.10;4.70;;;29.50;53.00;;;;;;5034178;28;20516;-79
2022/08/15 00:05:11;;;;;;;5.73;5.20;;;29.50;53.00;;;;;;5049982;28;21226;-77
2022/08/15 00:07:39;;;;;;;6.00;5.40;;;29.50;53.00;;;;;;5052576;28;20473;-77
2022/08/15 00:10:17;;;;;;;5.00;4.70;;;29.50;53.00;;;;;;5039412;28;20442;-77
2022/08/15 00:13:12;;;;;;;4.60;4.30;;;29.50;53.00;;;;;;5033008;28;20446;-77
2022/08/15 00:15:43;;;;;;;4.63;4.20;;;29.50;52.90;;;;;;5032244;28;20458;-77
2022/08/15 00:18:13;;;;;;;4.90;4.50;;;29.50;52.90;;;;;;5032421;28;20464;-77
2022/08/15 00:20:41;;;;;;;4.67;4.37;;;29.50;52.80;;;;;;5032584;28;20516;-78
2022/08/15 00:23:22;;;;;;;4.60;4.20;;;29.50;52.80;;;;;;5032624;28;20488;-76
2022/08/15 00:25:54;;;;;;;6.07;5.57;;;29.50;52.80;;;;;;5031864;28;20949;-76
2022/08/15 00:28:27;;;;;;;5.23;4.83;;;29.60;52.80;;;;;;5032900;28;20423;-77
2022/08/15 00:31:10;;;;;;;4.97;4.60;;;29.60;52.80;;;;;;5038864;28;20535;-76
2022/08/15 00:33:40;;;;;;;5.70;5.20;;;29.50;52.90;;;;;;5055613;28;20786;-76
2022/08/15 00:36:14;;;;;;;4.87;4.57;;;29.50;52.90;;;;;;5050792;28;20453;-77
2022/08/15 00:39:03;;;;;;;4.57;4.23;;;29.50;53.00;;;;;;5064759;28;21360;-76
2022/08/15 00:41:41;;;;;;;5.10;4.60;;;29.50;53.00;;;;;;5052689;28;20453;-76
2022/08/15 00:44:15;;;;;;;4.80;4.40;;;29.50;53.00;;;;;;5054892;28;20890;-77
2022/08/15 00:46:51;;;;;;;4.63;4.43;;;29.50;53.00;;;;;;5047900;28;20452;-76
2022/08/15 00:49:21;;;;;;;4.53;4.23;;;29.40;53.00;;;;;;5053872;28;20458;-76
2022/08/15 00:51:52;;;;;;;5.27;4.77;;;29.40;53.00;;;;;;5096582;28;20585;-77
2022/08/15 00:54:27;;;;;;;4.90;4.60;;;29.40;53.00;;;;;;5051142;28;20484;-77
2022/08/15 00:57:19;;;;;;;5.27;4.97;;;29.50;53.00;;;;;;5060900;28;20457;-78
2022/08/15 01:00:14;;;;;;;4.90;4.60;;;29.40;53.10;;;;;;5047781;28;20471;-77
2022/08/15 01:03:03;;;;;;;4.47;4.17;;;29.50;53.00;;;;;;5053645;28;20490;-77
2022/08/15 01:05:32;;;;;;;4.50;4.20;;;29.50;52.90;;;;;;5055851;28;20473;-76
2022/08/15 01:08:02;;;;;;;4.53;3.97;;;29.50;53.00;;;;;;5061982;28;20855;-76
2022/08/15 01:10:34;;;;;;;4.73;4.43;;;29.50;53.00;;;;;;5056763;28;20455;-76
2022/08/15 01:13:05;;;;;;;5.40;5.00;;;29.50;53.00;;;;;;5061607;28;20445;-75
2022/08/15 01:15:47;;;;;;;5.03;4.63;;;29.50;52.90;;;;;;5059788;28;20442;-77
2022/08/15 01:18:18;;;;;;;4.70;4.40;;;29.50;52.90;;;;;;5051344;28;20451;-77
2022/08/15 01:21:10;;;;;;;5.20;4.80;;;29.50;52.90;;;;;;5049998;28;20449;-76
2022/08/15 01:23:44;;;;;;;5.47;5.07;;;29.50;52.90;;;;;;5056941;28;20454;-76
2022/08/15 01:26:26;;;;;;;5.60;5.20;;;29.50;52.90;;;;;;5057945;28;20530;-76
2022/08/15 01:29:17;;;;;;;5.13;4.73;;;29.50;52.90;;;;;;5048495;28;20455;-76
2022/08/15 01:31:47;;;;;;;4.87;4.60;;;29.50;52.90;;;;;;5058896;28;20817;-76
2022/08/15 01:34:18;;;;;;;5.50;5.10;;;29.50;52.90;;;;;;5085823;28;20470;-77
2022/08/15 01:36:49;;;;;;;6.13;5.63;;;29.50;52.90;;;;;;5053108;28;20442;-78
2022/08/15 01:39:30;;;;;;;5.60;5.17;;;29.50;53.00;;;;;;5053998;28;20446;-76
2022/08/15 01:42:11;;;;;;;4.50;4.20;;;29.50;53.00;;;;;;5060173;28;20448;-76
2022/08/15 01:44:51;;;;;;;5.27;4.97;;;29.50;53.00;;;;;;5053352;28;20480;-77
2022/08/15 01:47:33;;;;;;;4.83;4.53;;;29.50;53.00;;;;;;5063423;28;20958;-76
2022/08/15 01:50:08;;;;;;;4.60;4.30;;;29.50;53.10;;;;;;5066952;28;20450;-76
2022/08/15 01:52:46;;;;;;;5.30;4.90;;;29.50;53.10;;;;;;5067138;28;20451;-78
2022/08/15 01:55:44;;;;;;;4.83;4.43;;;29.50;53.10;;;;;;5049295;28;21037;-76
2022/08/15 01:58:25;;;;;;;4.63;4.20;;;29.50;53.10;;;;;;5085195;28;20451;-76
2022/08/15 02:01:06;;;;;;;4.83;4.53;;;29.50;53.10;;;;;;5064710;28;20459;-77
2022/08/15 02:03:35;;;;;;;5.60;5.23;;;29.50;53.20;;;;;;5060500;28;20493;-77
2022/08/15 02:06:22;;;;;;;4.67;4.43;;;29.50;53.20;;;;;;5050640;28;20510;-76
2022/08/15 02:09:07;;;;;;;4.83;4.33;;;29.50;53.20;;;;;;5052583;28;20470;-77
2022/08/15 02:11:56;;;;;;;4.43;4.13;;;29.40;53.20;;;;;;5044354;28;20481;-76
2022/08/15 02:14:33;;;;;;;5.17;4.67;;;29.40;53.30;;;;;;5065721;28;20451;-77
2022/08/15 02:17:13;;;;;;;5.70;5.30;;;29.40;53.30;;;;;;5060264;28;20515;-77
2022/08/15 02:19:44;;;;;;;4.77;4.47;;;29.40;53.30;;;;;;5060515;28;20478;-77
2022/08/15 02:22:24;;;;;;;4.73;4.43;;;29.40;53.30;;;;;;5047272;28;20450;-77
2022/08/15 02:24:56;;;;;;;5.53;5.13;;;29.40;53.30;;;;;;5044360;28;20475;-77
2022/08/15 02:27:28;;;;;;;5.40;5.00;;;29.40;53.40;;;;;;5081858;28;20466;-77
2022/08/15 02:29:59;;;;;;;5.67;5.27;;;29.40;53.40;;;;;;5061864;28;20442;-77
2022/08/15 02:32:28;;;;;;;5.50;5.10;;;29.40;53.40;;;;;;5094632;28;20464;-76
2022/08/15 02:35:00;;;;;;;5.77;5.37;;;29.40;53.40;;;;;;5055295;28;20478;-76
2022/08/15 02:37:32;;;;;;;5.00;4.60;;;29.40;53.50;;;;;;5061983;28;20794;-78
2022/08/15 02:40:11;;;;;;;6.03;4.93;;;29.40;53.50;;;;;;5051975;28;20460;-77
2022/08/15 02:43:03;;;;;;;4.93;4.63;;;29.40;53.50;;;;;;5060250;28;20487;-76
2022/08/15 02:45:37;;;;;;;5.33;4.93;;;29.40;53.60;;;;;;5055570;28;20478;-76
2022/08/15 02:48:26;;;;;;;4.93;4.63;;;29.30;53.60;;;;;;5048893;28;20463;-76
2022/08/15 02:51:00;;;;;;;5.27;4.87;;;29.30;53.60;;;;;;5057971;28;20474;-77
2022/08/15 02:53:38;;;;;;;5.73;5.20;;;29.30;53.60;;;;;;5050299;28;20473;-77
2022/08/15 02:56:16;;;;;;;5.70;5.33;;;29.30;53.70;;;;;;5061011;28;20472;-76
2022/08/15 02:58:45;;;;;;;6.13;5.73;;;29.30;53.70;;;;;;5060859;28;20443;-77
2022/08/15 03:01:15;;;;;;;5.33;5.03;;;29.30;53.70;;;;;;5054896;28;20454;-78
2022/08/15 03:03:51;;;;;;;5.00;4.70;;;29.30;53.70;;;;;;5059351;28;20498;-76
2022/08/15 03:06:26;;;;;;;5.83;5.43;;;29.30;53.80;;;;;;5076409;28;20476;-77
2022/08/15 03:09:07;;;;;;;5.83;5.43;;;29.30;53.80;;;;;;5083229;28;20469;-77
2022/08/15 03:11:47;;;;;;;5.20;4.90;;;29.30;53.80;;;;;;5058401;28;20458;-77
2022/08/15 03:14:35;;;;;;;4.80;4.50;;;29.30;53.80;;;;;;5055106;28;20987;-77
2022/08/15 03:17:09;;;;;;;5.37;5.00;;;29.30;53.80;;;;;;5069491;28;21007;-77
2022/08/15 03:19:43;;;;;;;5.30;5.00;;;29.30;53.80;;;;;;5056041;28;20494;-78
2022/08/15 03:22:15;;;;;;;6.07;5.57;;;29.30;53.80;;;;;;5054779;28;20487;-78
2022/08/15 03:25:03;;;;;;;4.40;4.10;;;29.30;53.80;;;;;;5083191;28;20559;-77
2022/08/15 03:27:32;;;;;;;5.47;5.10;;;29.20;53.80;;;;;;5056522;28;20771;-77
2022/08/15 03:30:07;;;;;;;4.70;4.40;;;29.20;53.90;;;;;;5057365;28;20457;-79
2022/08/15 03:32:51;;;;;;;4.70;4.40;;;29.20;53.90;;;;;;5059245;28;20460;-77
2022/08/15 03:35:25;;;;;;;4.13;3.83;;;29.20;53.90;;;;;;5064115;28;20480;-77
2022/08/15 03:38:00;;;;;;;4.37;4.07;;;29.20;53.90;;;;;;5055903;28;20875;-77
2022/08/15 03:40:37;;;;;;;5.03;4.73;;;29.20;53.90;;;;;;5060255;28;20467;-77
2022/08/15 03:43:10;;;;;;;4.97;4.67;;;29.20;53.90;;;;;;5056585;28;20462;-77
2022/08/15 03:45:46;;;;;;;4.77;4.47;;;29.20;54.00;;;;;;5059116;28;20469;-77
2022/08/15 03:48:23;;;;;;;4.73;4.43;;;29.20;54.00;;;;;;5057675;28;20456;-77
2022/08/15 03:50:56;;;;;;;4.53;4.23;;;29.20;54.00;;;;;;5061211;28;20469;-77
2022/08/15 03:53:32;;;;;;;4.27;3.97;;;29.20;54.00;;;;;;5055782;28;20462;-77
2022/08/15 03:56:05;;;;;;;4.97;4.60;;;29.20;54.00;;;;;;5049112;28;20485;-77
2022/08/15 03:58:37;;;;;;;4.63;4.30;;;29.20;54.00;;;;;;5040484;28;20471;-77
2022/08/15 04:01:13;;;;;;;4.20;3.90;;;29.10;54.00;;;;;;5091902;28;20467;-77
2022/08/15 04:03:45;;;;;;;4.50;4.20;;;29.20;54.00;;;;;;5057159;28;20489;-78
2022/08/15 04:06:18;;;;;;;4.10;3.80;;;29.20;54.10;;;;;;5057276;28;20481;-77
2022/08/15 04:08:57;;;;;;;5.03;4.37;;;29.10;54.10;;;;;;5065348;28;20454;-80
2022/08/15 04:11:45;;;;;;;4.97;4.57;;;29.10;54.10;;;;;;5061977;28;20462;-78
2022/08/15 04:14:21;;;;;;;4.53;4.23;;;29.10;54.10;;;;;;5058165;28;20441;-77
2022/08/15 04:17:06;;;;;;;4.67;4.27;;;29.10;54.10;;;;;;5059609;28;20539;-76
2022/08/15 04:19:48;;;;;;;4.63;4.23;;;29.10;54.20;;;;;;5058570;28;20466;-76
2022/08/15 04:22:34;;;;;;;5.00;4.60;;;29.10;54.20;;;;;;5076483;28;21004;-76
2022/08/15 04:25:11;;;;;;;4.80;4.40;;;29.10;54.30;;;;;;5051498;28;20451;-78
2022/08/15 04:27:48;;;;;;;4.73;4.23;;;29.10;54.30;;;;;;5059451;28;20464;-77
2022/08/15 04:30:28;;;;;;;5.40;4.37;;;29.10;54.30;;;;;;5059147;28;20886;-77
2022/08/15 04:33:07;;;;;;;4.03;3.73;;;29.10;54.30;;;;;;5062471;28;20915;-77
2022/08/15 04:35:59;;;;;;;3.90;3.70;;;29.10;54.40;;;;;;5052147;28;20534;-76
2022/08/15 04:38:33;;;;;;;7.53;4.50;;;29.10;54.50;;;;;;5060371;28;20554;-77
2022/08/15 04:41:05;;;;;;;4.50;4.10;;;29.10;54.50;;;;;;5058983;28;20450;-77
2022/08/15 04:43:53;;;;;;;3.80;3.60;;;29.10;54.50;;;;;;5074223;28;20481;-77
2022/08/15 04:46:22;;;;;;;4.33;4.03;;;29.10;54.60;;;;;;5049206;28;20530;-77
2022/08/15 04:48:56;;;;;;;3.77;3.47;;;29.00;54.60;;;;;;5059549;28;20463;-77
2022/08/15 04:51:26;;;;;;;5.13;4.30;;;29.10;54.60;;;;;;5043247;28;20457;-77
2022/08/15 04:54:07;;;;;;;4.03;3.70;;;29.00;54.70;;;;;;5071985;28;20472;-77
2022/08/15 04:56:38;;;;;;;4.40;3.80;;;29.10;54.80;;;;;;5050039;28;20473;-76
2022/08/15 04:59:21;;;;;;;3.93;3.53;;;29.00;54.80;;;;;;5060263;28;20453;-76
2022/08/15 05:02:12;;;;;;;3.50;3.20;;;29.00;55.00;;;;;;5052822;28;21008;-76
2022/08/15 05:05:03;;;;;;;4.00;3.60;;;29.00;55.10;;;;;;5055079;28;20969;-76
2022/08/15 05:07:35;;;;;;;3.73;3.53;;;29.00;55.20;;;;;;5049726;28;20496;-76
2022/08/15 05:10:08;;;;;;;3.77;3.47;;;29.00;55.30;;;;;;5061237;28;20598;-76
2022/08/15 05:12:41;;;;;;;3.73;3.53;;;29.00;55.40;;;;;;5062536;28;20453;-77
2022/08/15 05:15:10;;;;;;;5.87;3.60;;;29.00;55.50;;;;;;5083751;28;20936;-77
2022/08/15 05:17:41;;;;;;;3.80;3.50;;;29.00;55.50;;;;;;5055833;28;20477;-80
2022/08/15 05:20:28;;;;;;;3.73;3.53;;;29.00;55.70;;;;;;5055607;28;20509;-76
2022/08/15 05:23:06;;;;;;;4.50;3.43;;;29.00;55.60;;;;;;5040397;28;20859;-77
2022/08/15 05:25:54;;;;;;;3.87;3.60;;;29.00;55.60;;;;;;5064030;28;20456;-78
2022/08/15 05:28:24;;;;;;;4.67;4.30;;;29.00;55.60;;;;;;5063352;28;20469;-79
2022/08/15 05:31:00;;;;;;;3.63;3.33;;;29.00;55.80;;;;;;5047860;28;20940;-78
2022/08/15 05:33:44;;;;;;;3.60;3.30;;;28.90;55.80;;;;;;5059382;28;20525;-77
2022/08/15 05:36:34;;;;;;;3.97;3.60;;;29.00;56.00;;;;;;5065877;28;20446;-77
2022/08/15 05:39:15;;;;;;;3.67;3.37;;;28.90;56.10;;;;;;5068841;28;20459;-76
2022/08/15 05:41:51;;;;;;;4.83;4.40;;;28.90;56.10;;;;;;5058214;28;20812;-77
2022/08/15 05:44:28;;;;;;;3.60;3.30;;;28.90;56.10;;;;;;5063441;28;20478;-79
2022/08/15 05:47:21;;;;;;;3.27;3.07;;;28.90;56.40;;;;;;5069408;28;20481;-79
2022/08/15 05:49:54;;;;;;;4.70;4.30;;;28.90;56.60;;;;;;5050180;28;20500;-78
2022/08/15 05:52:35;;;;;;;3.90;3.63;;;28.90;56.50;;;;;;5058500;28;20465;-77
2022/08/15 05:55:23;;;;;;;4.23;3.20;;;28.90;56.50;;;;;;5064723;28;20469;-77
2022/08/15 05:58:06;;;;;;;3.63;3.27;;;28.90;56.60;;;;;;5060356;28;20463;-78
2022/08/15 06:01:05;;;;;;;3.60;3.30;;;28.90;56.80;;;;;;5096489;28;20447;-78
2022/08/15 06:03:47;;;;;;;3.77;3.37;;;28.90;57.20;;;;;;5059145;28;20809;-77
2022/08/15 06:06:30;;;;;;;3.37;3.17;;;28.90;57.20;;;;;;5053683;28;20856;-77
2022/08/15 06:09:34;;;;;;;4.10;3.73;;;28.90;56.90;;;;;;5056995;28;20458;-76
2022/08/15 06:12:25;;;;;;;3.33;3.03;;;28.90;57.20;;;;;;5055721;28;20467;-76
2022/08/15 06:15:06;;;;;;;4.40;4.00;;;28.90;57.10;;;;;;5050300;28;21372;-76
2022/08/15 06:17:43;;;;;;;4.27;3.90;;;28.80;57.30;;;;;;5070878;28;20541;-77
2022/08/15 06:20:20;;;;;;;3.27;3.07;;;28.80;57.00;;;;;;5054056;28;20490;-76
2022/08/15 06:23:14;;;;;;;3.77;3.50;;;28.80;57.30;;;;;;5047142;28;21015;-76
2022/08/15 06:25:55;;;;;;;4.50;3.40;;;28.80;57.20;;;;;;5047349;28;20453;-76
2022/08/15 06:28:49;;;;;;;3.43;3.23;;;28.80;57.20;;;;;;5055153;28;20980;-76
2022/08/15 06:31:31;;;;;;;4.07;3.63;;;28.80;57.60;;;;;;5051055;28;20464;-76
2022/08/15 06:34:22;;;;;;;3.37;3.17;;;28.80;57.50;;;;;;5049899;28;20507;-76
2022/08/15 06:37:21;;;;;;;3.80;3.50;;;28.80;57.60;;;;;;5055138;28;20449;-76
2022/08/15 06:40:05;;;;;;;3.77;3.57;;;28.80;57.50;;;;;;5067551;28;20460;-76
2022/08/15 06:42:40;;;;;;;3.03;2.83;;;28.80;57.60;;;;;;5040562;28;20944;-76
2022/08/15 06:45:16;;;;;;;3.60;3.40;;;28.80;57.50;;;;;;5036943;28;20454;-76
2022/08/15 06:47:46;;;;;;;3.60;3.40;;;28.80;57.50;;;;;;5038546;28;20461;-76
2022/08/15 06:50:29;;;;;;;4.03;3.67;;;28.80;57.40;;;;;;5077378;28;20455;-76
2022/08/15 06:53:05;;;;;;;3.20;2.90;;;28.80;57.50;;;;;;5036798;28;20493;-78
2022/08/15 06:55:48;;;;;;;3.80;3.50;;;28.80;57.50;;;;;;5053515;28;20455;-76
2022/08/15 06:58:34;;;;;;;3.57;3.30;;;28.80;57.60;;;;;;5088280;28;20452;-76
2022/08/15 07:01:36;;;;;;;3.07;2.87;;;28.80;57.50;;;;;;5065071;28;20448;-76
2022/08/15 07:04:34;;;;;;;7.47;3.67;;;28.80;57.60;;;;;;5078899;28;20478;-76
2022/08/15 07:07:15;;;;;;;3.67;3.37;;;28.80;57.50;;;;;;5048892;28;20950;-76
2022/08/15 07:09:55;;;;;;;3.80;3.57;;;28.80;57.50;;;;;;5086591;28;20554;-76
2022/08/15 07:12:31;;;;;;;3.90;3.63;;;28.80;57.40;;;;;;5053821;28;20448;-76
2022/08/15 07:15:13;;;;;;;3.33;3.13;;;28.80;57.50;;;;;;5075191;28;20546;-76
2022/08/15 07:17:49;;;;;;;3.57;3.23;;;28.80;57.40;;;;;;5062013;28;20479;-76
2022/08/15 07:20:23;;;;;;;3.37;3.17;;;28.80;57.40;;;;;;5040997;28;20818;-77
2022/08/15 07:23:19;;;;;;;3.10;2.90;;;28.80;57.30;;;;;;5045956;28;20460;-76
2022/08/15 07:25:50;;;;;;;2.93;2.70;;;28.80;57.10;;;;;;5039255;28;20850;-78
2022/08/15 07:28:25;;;;;;;3.40;3.20;;;28.80;57.20;;;;;;5071489;28;20860;-75
2022/08/15 07:31:06;;;;;;;4.00;3.60;;;28.80;57.30;;;;;;5070657;28;20487;-75
2022/08/15 07:33:41;;;;;;;3.17;2.60;;;28.80;57.20;;;;;;5079554;28;20515;-76
2022/08/15 07:36:26;;;;;;;3.37;3.17;;;28.80;57.00;;;;;;5034161;28;20478;-75
2022/08/15 07:39:22;;;;;;;3.37;3.10;;;28.80;57.10;;;;;;5041590;28;20867;-75
2022/08/15 07:42:15;;;;;;;4.67;3.20;;;28.80;57.10;;;;;;5043913;28;20559;-75
2022/08/15 07:45:08;;;;;;;5.93;2.93;;;28.80;57.10;;;;;;5034282;28;20463;-77
2022/08/15 07:47:39;;;;;;;2.90;2.70;;;28.80;57.00;;;;;;5069588;28;20472;-76
2022/08/15 07:50:31;;;;;;;3.13;2.93;;;28.80;57.00;;;;;;5043446;28;20448;-76
2022/08/15 07:53:11;;;;;;;3.40;3.13;;;28.80;56.90;;;;;;5043221;28;20488;-76
2022/08/15 07:56:10;;;;;;;4.60;2.80;;;28.80;56.80;;;;;;5044474;28;20504;-77
2022/08/15 07:59:10;;;;;;;3.27;2.87;;;28.80;56.80;;;;;;5047152;28;20522;-77
2022/08/15 08:01:39;;;;;;;3.50;3.20;;;28.80;56.70;;;;;;5046208;28;20452;-76
2022/08/15 08:04:11;;;;;;;3.67;3.37;;;28.80;56.80;;;;;;5049232;28;20472;-76
2022/08/15 08:06:58;;;;;;;4.37;4.00;;;28.80;56.70;;;;;;5047206;28;20533;-77
2022/08/15 08:09:36;;;;;;;3.40;3.20;;;28.90;56.70;;;;;;5071614;28;20474;-77
2022/08/15 08:12:21;;;;;;;2.63;2.53;;;28.90;56.70;;;;;;5046275;28;20451;-77
2022/08/15 08:15:17;;;;;;;3.10;2.80;;;28.90;56.80;;;;;;5042676;28;20472;-77
2022/08/15 08:18:08;;;;;;;3.87;2.90;;;28.90;56.80;;;;;;5038298;28;20490;-75
2022/08/15 08:20:44;;;;;;;4.70;3.00;;;28.90;56.70;;;;;;5046433;28;20459;-78
2022/08/15 08:23:26;;;;;;;3.17;2.90;;;28.90;56.80;;;;;;5073390;28;20462;-75
2022/08/15 08:26:06;;;;;;;2.87;2.77;;;28.90;57.00;;;;;;5058594;28;20460;-78
2022/08/15 08:28:58;;;;;;;3.40;2.70;;;28.90;57.00;;;;;;5046307;28;20483;-72
2022/08/15 08:31:40;;;;;;;3.30;3.10;;;29.00;57.00;;;;;;5073502;28;20510;-75
2022/08/15 08:34:30;;;;;;;4.07;3.60;;;29.00;57.00;;;;;;5051337;28;20444;-74
2022/08/15 08:37:26;;;;;;;3.27;3.00;;;29.00;57.00;;;;;;5046920;28;20524;-73
2022/08/15 08:42:53;;;;;;;3.70;3.13;;;29.00;57.00;;;;;;5046202;28;20463;-74
2022/08/15 08:45:42;;;;;;;3.43;3.13;;;29.00;56.90;;;;;;5050615;28;20448;-76
2022/08/15 08:48:31;;;;;;;3.40;3.10;;;29.10;56.90;;;;;;5048647;28;20477;-75
2022/08/15 08:51:08;;;;;;;2.43;2.30;;;29.10;56.90;;;;;;5052217;28;20506;-74
2022/08/15 08:53:45;;;;;;;3.53;3.23;;;29.10;56.70;;;;;;5054877;28;20485;-75
2022/08/15 08:56:24;;;;;;;3.50;3.07;;;29.10;56.70;;;;;;5042249;28;20452;-75
2022/08/15 08:59:09;;;;;;;5.07;3.53;;;29.10;56.80;;;;;;5043751;28;20448;-74
2022/08/15 09:01:40;;;;;;;6.03;4.20;;;29.10;56.80;;;;;;5051989;28;20757;-77
2022/08/15 09:04:14;;;;;;;5.53;3.00;;;29.10;56.80;;;;;;5046233;28;20491;-77
2022/08/15 09:06:50;;;;;;;3.50;3.20;;;29.20;56.70;;;;;;5043955;28;20452;-74
2022/08/15 09:09:27;;;;;;;4.00;3.60;;;29.20;56.50;;;;;;5045372;28;20569;-72
2022/08/15 09:12:03;;;;;;;4.00;3.67;;;29.20;56.70;;;;;;5048739;28;20475;-75
2022/08/15 09:14:39;;;;;;;3.30;3.00;;;29.20;56.70;;;;;;5046759;28;20840;-75
2022/08/15 09:17:30;;;;;;;3.23;2.93;;;29.20;56.60;;;;;;5046958;28;20508;-77
2022/08/15 09:20:06;;;;;;;3.93;3.53;;;29.20;56.60;;;;;;5046931;28;20435;-74
2022/08/15 09:22:48;;;;;;;3.40;3.10;;;29.20;56.50;;;;;;5041382;28;20512;-72
2022/08/15 09:25:20;;;;;;;3.07;2.87;;;29.20;56.30;;;;;;5045344;28;20459;-76
2022/08/15 09:28:09;;;;;;;3.07;2.87;;;29.30;56.40;;;;;;5046392;28;20441;-71
2022/08/15 09:30:59;;;;;;;3.87;2.90;;;29.30;56.10;;;;;;5058180;28;20535;-71
2022/08/15 09:33:55;;;;;;;3.17;2.97;;;29.30;55.70;;;;;;5043678;28;20561;-71
2022/08/15 09:36:43;;;;;;;3.13;2.60;;;29.30;55.80;;;;;;5013899;28;20514;-74
2022/08/15 09:39:29;;;;;;;2.90;2.67;;;29.30;55.60;;;;;;5049999;28;20847;-72
2022/08/15 09:42:22;;;;;;;4.20;3.00;;;29.30;55.60;;;;;;5042478;28;20441;-71
2022/08/15 09:45:34;;;;;;;3.33;3.10;;;29.30;55.40;;;;;;5045373;28;20453;-73
2022/08/15 09:48:33;;;;;;;5.00;3.17;;;29.30;55.50;;;;;;5051748;28;20477;-70
2022/08/15 09:51:26;;;;;;;3.10;2.80;;;29.30;55.40;;;;;;5050798;28;20500;-71
2022/08/15 09:54:05;;;;;;;2.90;2.70;;;29.30;55.40;;;;;;5052905;28;20495;-73
2022/08/15 09:57:20;;;;;;;5.30;3.17;;;29.30;55.50;;;;;;5050210;28;20449;-71
2022/08/15 09:59:52;;;;;;;4.70;3.77;;;29.30;55.50;;;;;;5056355;28;20449;-75
2022/08/15 10:02:27;;;;;;;4.10;3.70;;;29.30;55.50;;;;;;5050684;28;20488;-72
2022/08/15 10:05:14;;;;;;;3.67;3.07;;;29.30;55.60;;;;;;5055996;28;20448;-71
2022/08/15 10:07:48;;;;;;;5.40;3.50;;;29.30;55.60;;;;;;5056591;28;20488;-71
2022/08/15 10:10:24;;;;;;;6.40;3.00;;;29.30;55.50;;;;;;5052899;28;20497;-71
2022/08/15 10:13:26;;;;;;;4.20;3.17;;;29.30;55.50;;;;;;5066609;28;20442;-71
2022/08/15 10:15:58;;;;;;;4.97;3.47;;;29.30;55.60;;;;;;5040809;28;20445;-71
2022/08/15 10:19:05;;;;;;;3.87;2.80;;;29.30;55.60;;;;;;5053694;28;20538;-71
2022/08/15 10:21:39;;;;;;;5.20;3.10;;;29.30;55.50;;;;;;5051380;28;20536;-71
2022/08/15 10:24:25;;;;;;;3.23;2.90;;;29.30;55.30;;;;;;5049311;28;20502;-74
2022/08/15 10:27:20;;;;;;;3.60;2.63;;;29.30;55.60;;;;;;5054095;28;20448;-70
2022/08/15 10:29:53;;;;;;;4.13;3.10;;;29.30;55.40;;;;;;5054049;28;20517;-71
2022/08/15 10:32:37;;;;;;;3.60;3.30;;;29.30;55.50;;;;;;5061275;28;20477;-71
2022/08/15 10:35:31;;;;;;;4.50;3.30;;;29.30;55.40;;;;;;5067318;28;20457;-71
2022/08/15 10:38:07;;;;;;;2.83;2.63;;;29.30;55.40;;;;;;5038235;28;20489;-71
2022/08/15 10:41:03;;;;;;;3.13;2.83;;;29.30;55.40;;;;;;5049506;28;20799;-73
2022/08/15 10:44:07;;;;;;;3.50;3.20;;;29.30;55.40;;;;;;5043601;28;20441;-70
2022/08/15 10:47:07;;;;;;;5.33;3.20;;;29.30;55.40;;;;;;5047378;28;20455;-72
2022/08/15 10:49:44;;;;;;;4.20;2.93;;;29.30;55.30;;;;;;5056545;28;20533;-72
2022/08/15 10:52:38;;;;;;;3.83;2.77;;;29.30;55.30;;;;;;5066441;28;20440;-71
2022/08/15 10:55:36;;;;;;;2.87;2.53;;;29.30;55.40;;;;;;5068744;28;20919;-71
2022/08/15 10:58:32;;;;;;;4.13;2.60;;;29.30;55.20;;;;;;5044162;28;20459;-74
2022/08/15 11:01:06;;;;;;;3.00;2.80;;;29.30;55.20;;;;;;5057428;28;20777;-70
2022/08/15 11:03:42;;;;;;;3.93;2.57;;;29.30;55.30;;;;;;5059711;28;20483;-71
2022/08/15 11:06:34;;;;;;;3.13;2.83;;;29.30;55.20;;;;;;5040422;28;20471;-72
2022/08/15 11:09:07;;;;;;;2.77;2.60;;;29.30;55.10;;;;;;5067167;28;20963;-71
2022/08/15 11:11:43;;;;;;;3.30;3.10;;;29.40;55.10;;;;;;5048822;28;20440;-71
2022/08/15 11:14:19;;;;;;;3.30;3.10;;;29.40;55.10;;;;;;5056364;28;20476;-71
2022/08/15 11:16:59;;;;;;;3.73;2.90;;;29.40;55.10;;;;;;5050893;28;20819;-71
2022/08/15 11:19:30;;;;;;;3.20;3.00;;;29.40;55.00;;;;;;5053200;28;20454;-71
2022/08/15 11:22:29;;;;;;;3.33;2.60;;;29.40;55.00;;;;;;5049187;28;20460;-71
2022/08/15 11:25:00;;;;;;;2.33;2.23;;;29.40;55.00;;;;;;5049655;28;20484;-71
2022/08/15 11:27:31;;;;;;;3.17;2.87;;;29.40;55.10;;;;;;5044999;28;20941;-72
2022/08/15 11:30:03;;;;;;;2.90;2.70;;;29.40;55.00;;;;;;5040296;28;20559;-71
2022/08/15 11:32:52;;;;;;;3.13;2.93;;;29.50;55.00;;;;;;5056964;28;20449;-71
2022/08/15 11:35:27;;;;;;;3.03;2.80;;;29.50;55.00;;;;;;5039507;28;20449;-71
2022/08/15 11:37:59;;;;;;;3.00;2.67;;;29.40;55.00;;;;;;5064520;28;20452;-74
2022/08/15 11:40:31;;;;;;;3.27;2.97;;;29.50;55.00;;;;;;5057165;28;20442;-71
2022/08/15 11:43:03;;;;;;;2.70;2.50;;;29.50;55.00;;;;;;5055680;28;20466;-71
2022/08/15 11:45:41;;;;;;;2.80;2.60;;;29.50;55.00;;;;;;5060442;28;20444;-71
2022/08/15 11:48:23;;;;;;;2.63;2.43;;;29.50;55.00;;;;;;5063488;28;20993;-71
2022/08/15 11:51:10;;;;;;;3.43;2.93;;;29.50;55.00;;;;;;5059208;28;20473;-71
2022/08/15 11:54:07;;;;;;;2.50;2.30;;;29.50;55.00;;;;;;5049926;28;20531;-70
2022/08/15 11:56:50;;;;;;;2.87;2.67;;;29.50;55.00;;;;;;5050375;28;20469;-71
2022/08/15 11:59:26;;;;;;;3.00;2.80;;;29.50;55.00;;;;;;5039094;28;20455;-71
2022/08/15 12:02:14;;;;;;;3.27;3.07;;;29.50;55.00;;;;;;5037374;28;20493;-71
2022/08/15 12:05:12;;;;;;;3.93;2.93;;;29.50;55.00;;;;;;5046271;28;20551;-71
2022/08/15 12:08:03;;;;;;;3.10;2.80;;;29.50;55.00;;;;;;5053997;28;20549;-71
2022/08/15 12:10:52;;;;;;;2.77;2.57;;;29.60;54.90;;;;;;5063093;28;20465;-74
2022/08/15 12:13:41;;;;;;;3.07;2.73;;;29.60;54.80;;;;;;5052680;28;20457;-73
2022/08/15 12:16:26;;;;;;;3.00;2.80;;;29.60;54.80;;;;;;5058567;28;20529;-72
2022/08/15 12:18:58;;;;;;;2.50;2.40;;;29.60;54.80;;;;;;5052753;28;20461;-71
2022/08/15 12:21:33;;;;;;;2.60;2.50;;;29.60;54.80;;;;;;5058955;28;20919;-71
2022/08/15 12:24:07;;;;;;;2.60;2.47;;;29.60;54.80;;;;;;5059373;28;20956;-71
2022/08/15 12:26:36;;;;;;;3.00;2.77;;;29.60;54.80;;;;;;5063926;28;20463;-76
2022/08/15 12:29:16;;;;;;;2.70;2.50;;;29.60;54.80;;;;;;5051713;28;20437;-74
2022/08/15 12:31:48;;;;;;;3.60;2.80;;;29.60;54.80;;;;;;5051427;28;20572;-72
2022/08/15 12:34:20;;;;;;;2.47;2.27;;;29.60;54.80;;;;;;5050625;28;20462;-71
2022/08/15 12:37:00;;;;;;;3.90;2.87;;;29.60;54.80;;;;;;5060897;28;20469;-71
2022/08/15 12:39:34;;;;;;;2.87;2.67;;;29.70;54.70;;;;;;5057465;28;20469;-71
2022/08/15 12:42:03;;;;;;;2.73;2.63;;;29.70;54.70;;;;;;5058576;28;20780;-72
2022/08/15 12:44:54;;;;;;;2.77;2.67;;;29.70;54.70;;;;;;5054468;28;20449;-72
2022/08/15 12:47:27;;;;;;;3.20;2.90;;;29.70;54.70;;;;;;5056611;28;20528;-71
2022/08/15 12:49:59;;;;;;;3.90;2.73;;;29.70;54.60;;;;;;5067237;28;20530;-71
2022/08/15 12:52:29;;;;;;;3.57;3.37;;;29.70;54.70;;;;;;5051806;28;20542;-73
2022/08/15 12:54:58;;;;;;;2.60;2.50;;;29.70;54.60;;;;;;5064846;28;20500;-72
2022/08/15 12:57:29;;;;;;;3.10;2.37;;;29.70;54.60;;;;;;5058763;28;20452;-71
2022/08/15 13:00:19;;;;;;;2.70;2.50;;;29.70;54.60;;;;;;5047994;28;20503;-72
2022/08/15 13:03:22;;;;;;;2.50;2.40;;;29.70;54.70;;;;;;5054773;28;20514;-72
2022/08/15 13:06:01;;;;;;;2.73;2.53;;;29.60;54.70;;;;;;5052796;28;20454;-71
2022/08/15 13:08:52;;;;;;;2.40;2.30;;;29.60;54.80;;;;;;5047635;28;20544;-71
2022/08/15 13:11:22;;;;;;;2.57;2.40;;;29.70;54.70;;;;;;5053473;28;20471;-71
2022/08/15 13:13:52;;;;;;;3.00;2.70;;;29.70;54.60;;;;;;5048694;28;20580;-71
2022/08/15 13:16:22;;;;;;;3.07;2.87;;;29.70;54.70;;;;;;5061974;28;20879;-71
2022/08/15 13:19:15;;;;;;;2.23;2.13;;;29.70;54.60;;;;;;5064625;28;20524;-73
2022/08/15 13:24:58;;;;;;;2.47;2.37;;;29.70;54.70;;;;;;5063662;28;20635;-71
2022/08/15 13:27:29;;;;;;;2.40;2.30;;;29.60;54.80;;;;;;5053642;28;20484;-72
2022/08/15 13:29:59;;;;;;;2.10;2.00;;;29.60;54.70;;;;;;5059311;28;20458;-73
2022/08/15 13:32:30;;;;;;;2.60;2.50;;;29.60;54.90;;;;;;5055502;28;20470;-71
2022/08/15 13:34:59;;;;;;;3.30;3.10;;;29.50;54.90;;;;;;5052690;28;20453;-75
2022/08/15 13:37:37;;;;;;;2.87;2.73;;;29.50;54.90;;;;;;5051779;28;20445;-71
2022/08/15 13:40:25;;;;;;;2.93;2.73;;;29.50;54.90;;;;;;5050648;28;20864;-71
2022/08/15 13:42:59;;;;;;;2.37;2.17;;;29.50;54.90;;;;;;5042958;28;20457;-73
2022/08/15 13:45:31;;;;;;;2.50;2.40;;;29.60;54.80;;;;;;5067053;28;20982;-71
2022/08/15 13:48:24;;;;;;;2.57;2.47;;;29.60;54.70;;;;;;5060825;28;20457;-71
2022/08/15 13:50:54;;;;;;;3.37;3.07;;;29.60;54.50;;;;;;5054292;28;20744;-71
2022/08/15 13:53:23;;;;;;;2.60;2.40;;;29.60;54.50;;;;;;5064695;28;20453;-71
2022/08/15 13:56:11;;;;;;;3.10;2.90;;;29.60;54.40;;;;;;5046843;28;20566;-71
2022/08/15 13:58:58;;;;;;;2.73;2.53;;;29.60;54.30;;;;;;5047769;28;20469;-72
2022/08/15 14:01:27;;;;;;;2.83;2.63;;;29.60;54.30;;;;;;5051831;28;20439;-71
2022/08/15 14:04:05;;;;;;;2.77;2.67;;;29.60;54.20;;;;;;5043402;28;20526;-72